Time;durP1;ratioP1;P1;durP2;ratioP2;P2;SDS_P1;SDS_P2;PMS_P1;PMS_P2;Temp;Humidity;BMP_temperature;BMP_pressure;BME280_temperature;BME280_humidity;BME280_pressure;Samples;Min_cycle;Max_cycle;Signal;HPM_P1;HPM_P2
2021/06/28 00:01:10;;;;;;;16.17;8.70;;;;;;;24.49;51.63;95302.72;5091264;28;20209;-67
2021/06/28 00:03:38;;;;;;;12.83;8.53;;;;;;;24.50;52.21;95312.31;5092268;28;20195;-65
2021/06/28 00:06:06;;;;;;;13.57;8.40;;;;;;;24.45;51.25;95309.84;5073426;28;20208;-67
2021/06/28 00:08:33;;;;;;;10.90;8.03;;;;;;;24.10;52.01;95308.66;5072289;28;20201;-67
2021/06/28 00:11:01;;;;;;;8.77;7.43;;;;;;;24.01;52.34;95319.44;5085342;28;20271;-67
2021/06/28 00:13:28;;;;;;;11.33;7.90;;;;;;;23.99;52.63;95323.53;5071614;28;20199;-69
2021/06/28 00:15:55;;;;;;;11.40;8.37;;;;;;;24.04;53.29;95320.69;5086252;28;20203;-64
2021/06/28 00:18:23;;;;;;;10.73;7.97;;;;;;;24.12;53.39;95322.50;5084871;28;20198;-66
2021/06/28 00:20:50;;;;;;;9.60;7.93;;;;;;;24.17;52.98;95319.59;5090319;28;20183;-65
2021/06/28 00:23:17;;;;;;;12.20;7.83;;;;;;;24.19;52.35;95319.28;5091637;28;20206;-69
2021/06/28 00:25:44;;;;;;;9.40;7.50;;;;;;;24.08;52.32;95311.66;5091414;28;20233;-69
2021/06/28 00:28:12;;;;;;;12.90;8.33;;;;;;;24.08;52.49;95305.53;5092035;28;20203;-65
2021/06/28 00:30:42;;;;;;;11.67;7.40;;;;;;;24.02;52.76;95318.34;5090341;28;20579;-66
2021/06/28 00:33:12;;;;;;;11.67;7.53;;;;;;;24.01;52.88;95318.66;5091767;28;20207;-66
2021/06/28 00:35:40;;;;;;;9.80;7.17;;;;;;;24.06;52.82;95323.81;5091338;28;20202;-67
2021/06/28 00:38:08;;;;;;;11.17;7.90;;;;;;;24.03;52.28;95319.13;5091720;28;20554;-66
2021/06/28 00:40:37;;;;;;;8.97;7.00;;;;;;;24.00;52.81;95315.19;5077382;28;20194;-68
2021/06/28 00:43:06;;;;;;;9.27;7.90;;;;;;;24.00;52.67;95303.66;5093253;28;20723;-66
2021/06/28 00:45:37;;;;;;;11.67;7.50;;;;;;;24.05;52.49;95322.22;5091055;28;20213;-68
2021/06/28 00:48:14;;;;;;;11.67;7.50;;;;;;;23.91;52.87;95321.72;5092143;28;20289;-65
2021/06/28 00:50:48;;;;;;;10.80;7.27;;;;;;;23.80;52.66;95315.97;5090400;28;20183;-68
2021/06/28 00:53:17;;;;;;;9.80;7.70;;;;;;;23.92;52.40;95317.94;5091249;28;20199;-66
2021/06/28 00:55:45;;;;;;;10.90;7.53;;;;;;;23.87;52.06;95315.44;5088098;28;20744;-64
2021/06/28 00:58:12;;;;;;;15.53;7.67;;;;;;;23.83;52.09;95311.88;5084053;28;20210;-65
2021/06/28 01:00:40;;;;;;;14.73;7.53;;;;;;;23.74;51.99;95311.16;5078266;28;20198;-68
2021/06/28 01:03:08;;;;;;;10.83;7.00;;;;;;;23.70;52.49;95310.25;5078149;28;20200;-65
2021/06/28 01:05:38;;;;;;;10.27;6.40;;;;;;;23.84;51.91;95300.06;5074038;28;20231;-69
2021/06/28 01:08:06;;;;;;;8.00;6.63;;;;;;;23.65;51.81;95303.19;5081483;28;20609;-65
2021/06/28 01:10:34;;;;;;;9.77;6.60;;;;;;;23.58;51.66;95305.63;5092292;28;20195;-67
2021/06/28 01:13:01;;;;;;;8.53;6.50;;;;;;;23.69;51.32;95303.31;5085793;28;20199;-65
2021/06/28 01:15:28;;;;;;;12.03;7.40;;;;;;;23.72;51.84;95308.03;5081540;28;20676;-67
2021/06/28 01:17:55;;;;;;;11.93;7.07;;;;;;;23.68;51.64;95301.78;5086959;28;20196;-67
2021/06/28 01:20:25;;;;;;;8.33;7.23;;;;;;;23.61;52.16;95312.22;5085293;28;20202;-66
2021/06/28 01:22:55;;;;;;;12.90;7.43;;;;;;;23.39;52.56;95313.34;5090972;28;20183;-67
2021/06/28 01:25:24;;;;;;;10.57;7.40;;;;;;;23.29;52.82;95312.88;5089714;28;20230;-67
2021/06/28 01:27:51;;;;;;;10.13;7.53;;;;;;;23.24;53.06;95311.19;5090686;28;20274;-66
2021/06/28 01:30:27;;;;;;;10.93;7.43;;;;;;;23.07;53.25;95309.41;5090297;28;20653;-67
2021/06/28 01:32:54;;;;;;;12.03;7.40;;;;;;;23.22;53.11;95315.28;5055277;28;20657;-65
2021/06/28 01:35:22;;;;;;;10.97;6.93;;;;;;;23.09;53.38;95315.22;5069625;28;20221;-63
2021/06/28 01:37:50;;;;;;;8.63;7.23;;;;;;;23.24;52.58;95319.22;5070201;28;20195;-68
2021/06/28 01:40:18;;;;;;;10.83;7.07;;;;;;;23.15;53.25;95313.13;5068278;28;20234;-67
2021/06/28 01:42:46;;;;;;;15.33;7.37;;;;;;;23.13;53.37;95318.81;5057300;28;20547;-68
2021/06/28 01:45:23;;;;;;;10.53;6.93;;;;;;;22.97;53.91;95320.44;5069355;28;20212;-64
2021/06/28 01:47:54;;;;;;;10.23;7.37;;;;;;;23.05;54.17;95319.63;5068580;28;20268;-65
2021/06/28 01:50:23;;;;;;;10.23;7.10;;;;;;;23.00;53.75;95325.19;5068966;28;20688;-66
2021/06/28 01:52:50;;;;;;;13.17;7.13;;;;;;;23.01;53.60;95321.38;5056447;28;20700;-63
2021/06/28 01:55:19;;;;;;;10.47;6.70;;;;;;;22.99;53.59;95318.25;5069203;28;20198;-66
2021/06/28 01:57:52;;;;;;;16.57;7.83;;;;;;;22.95;53.62;95317.34;5064098;28;20279;-67
2021/06/28 02:00:33;;;;;;;10.27;7.03;;;;;;;22.70;54.07;95323.56;5049489;28;20291;-67
2021/06/28 02:03:00;;;;;;;8.40;7.23;;;;;;;22.64;54.08;95322.22;5056047;28;20207;-67
2021/06/28 02:05:31;;;;;;;9.30;7.03;;;;;;;22.90;53.59;95308.72;5072814;28;20220;-66
2021/06/28 02:07:59;;;;;;;9.87;6.83;;;;;;;22.63;53.59;95314.47;5065549;28;20239;-67
2021/06/28 02:10:27;;;;;;;11.23;6.67;;;;;;;22.18;55.01;95330.16;5061272;28;20195;-66
2021/06/28 02:12:54;;;;;;;8.80;6.57;;;;;;;22.34;54.53;95325.88;5055173;28;20203;-65
2021/06/28 02:15:26;;;;;;;10.33;7.10;;;;;;;22.05;55.31;95331.13;5069273;28;20253;-62
2021/06/28 02:17:53;;;;;;;11.53;7.13;;;;;;;22.26;55.12;95333.91;5069616;28;20196;-65
2021/06/28 02:20:21;;;;;;;9.13;7.03;;;;;;;22.38;54.71;95331.34;5069285;28;20188;-64
2021/06/28 02:22:49;;;;;;;12.37;6.90;;;;;;;22.46;54.54;95325.22;5069326;28;20191;-64
2021/06/28 02:25:18;;;;;;;11.40;6.90;;;;;;;22.55;54.36;95329.47;5069081;28;20211;-66
2021/06/28 02:27:46;;;;;;;7.67;6.47;;;;;;;22.60;54.05;95333.84;5069227;28;20206;-68
2021/06/28 02:30:16;;;;;;;9.70;6.20;;;;;;;22.52;53.49;95332.72;5068844;28;20580;-64
2021/06/28 02:32:43;;;;;;;9.23;6.10;;;;;;;22.54;52.94;95333.19;5088571;28;20226;-66
2021/06/28 02:35:13;;;;;;;12.60;6.63;;;;;;;22.64;52.86;95332.88;5089462;28;20203;-63
2021/06/28 02:37:40;;;;;;;10.23;6.80;;;;;;;22.66;52.77;95330.66;5081317;28;20244;-65
2021/06/28 02:40:12;;;;;;;9.07;6.60;;;;;;;22.60;52.94;95321.28;5068593;28;20203;-64
2021/06/28 02:42:40;;;;;;;14.87;7.23;;;;;;;22.51;53.14;95328.50;5089238;28;20206;-65
2021/06/28 02:45:08;;;;;;;13.00;6.67;;;;;;;22.36;54.04;95331.69;5076045;28;20217;-67
2021/06/28 02:47:36;;;;;;;10.10;6.57;;;;;;;22.21;54.05;95340.19;5083233;28;20743;-67
2021/06/28 02:50:12;;;;;;;18.03;7.27;;;;;;;22.32;54.26;95336.09;5079554;28;20195;-66
2021/06/28 02:52:43;;;;;;;11.23;7.00;;;;;;;22.15;54.61;95336.91;5074557;28;20198;-64
2021/06/28 02:55:11;;;;;;;10.97;6.77;;;;;;;22.09;54.87;95337.41;5089349;28;20227;-67
2021/06/28 02:57:38;;;;;;;10.90;6.83;;;;;;;22.01;55.00;95330.19;5090281;28;20641;-63
2021/06/28 03:00:13;;;;;;;12.33;7.23;;;;;;;22.25;54.92;95346.47;5090419;28;20544;-65
2021/06/28 03:02:41;;;;;;;12.37;7.63;;;;;;;22.20;54.76;95343.97;5089190;28;20199;-67
2021/06/28 03:05:10;;;;;;;13.97;7.53;;;;;;;22.04;55.54;95340.25;5079912;28;20626;-66
2021/06/28 03:07:38;;;;;;;16.20;8.07;;;;;;;22.08;55.14;95343.81;5073708;28;20227;-66
2021/06/28 03:10:12;;;;;;;11.33;7.27;;;;;;;22.17;55.11;95340.03;5087657;28;20731;-66
2021/06/28 03:12:39;;;;;;;14.77;7.50;;;;;;;22.09;55.12;95342.75;5079051;28;20200;-68
2021/06/28 03:15:13;;;;;;;17.97;7.17;;;;;;;22.22;54.57;95343.66;5088588;28;20199;-66
2021/06/28 03:17:40;;;;;;;9.67;6.20;;;;;;;21.92;54.21;95348.09;5075256;28;20215;-67
2021/06/28 03:20:10;;;;;;;10.27;6.27;;;;;;;22.19;53.54;95341.63;5093753;28;20192;-65
2021/06/28 03:22:39;;;;;;;10.63;6.30;;;;;;;22.17;53.65;95341.91;5092955;28;20195;-64
2021/06/28 03:25:08;;;;;;;11.50;6.77;;;;;;;22.02;53.89;95342.44;5092608;28;20684;-62
2021/06/28 03:27:35;;;;;;;11.77;7.07;;;;;;;22.17;53.82;95344.59;5093064;28;20721;-65
2021/06/28 03:30:04;;;;;;;8.17;7.00;;;;;;;22.21;53.65;95348.19;5084740;28;20661;-63
2021/06/28 03:32:35;;;;;;;10.93;6.33;;;;;;;22.27;53.42;95354.94;5088863;28;20739;-64
2021/06/28 03:35:03;;;;;;;9.93;6.70;;;;;;;21.74;53.73;95351.84;5092315;28;20199;-66
2021/06/28 03:37:30;;;;;;;9.93;6.63;;;;;;;22.12;53.23;95347.44;5085929;28;20188;-66
2021/06/28 03:39:57;;;;;;;11.67;6.53;;;;;;;22.26;53.40;95356.06;5085172;28;20199;-65
2021/06/28 03:42:24;;;;;;;14.10;6.93;;;;;;;22.38;53.36;95361.53;5092022;28;20191;-66
2021/06/28 03:44:51;;;;;;;8.77;6.40;;;;;;;22.41;53.51;95360.88;5090864;28;20690;-63
2021/06/28 03:47:18;;;;;;;10.40;6.90;;;;;;;22.46;52.88;95360.72;5074774;28;20663;-63
2021/06/28 03:49:45;;;;;;;8.63;6.97;;;;;;;22.58;52.85;95360.88;5081442;28;20281;-65
2021/06/28 03:52:12;;;;;;;13.47;6.93;;;;;;;22.57;53.01;95353.19;5088149;28;20195;-66
2021/06/28 03:54:39;;;;;;;10.20;7.37;;;;;;;22.70;52.77;95357.53;5072697;28;20630;-67
2021/06/28 03:57:07;;;;;;;20.13;6.77;;;;;;;22.68;52.52;95344.47;5072489;28;20251;-67
2021/06/28 03:59:34;;;;;;;9.87;6.50;;;;;;;22.72;52.40;95350.75;5080571;28;20576;-65
2021/06/28 04:02:01;;;;;;;12.90;6.90;;;;;;;22.84;52.07;95358.91;5077089;28;20207;-67
2021/06/28 04:04:28;;;;;;;10.97;6.97;;;;;;;22.75;52.53;95358.16;5073423;28;20210;-69
2021/06/28 04:06:55;;;;;;;15.40;8.60;;;;;;;22.67;52.70;95360.84;5071871;28;20220;-64
2021/06/28 04:09:22;;;;;;;14.83;7.60;;;;;;;22.92;52.77;95359.94;5076706;28;20221;-64
2021/06/28 04:11:49;;;;;;;11.23;7.60;;;;;;;22.90;52.57;95362.94;5078043;28;20571;-64
2021/06/28 04:14:16;;;;;;;13.33;7.70;;;;;;;22.75;52.54;95366.16;5085473;28;20236;-62
2021/06/28 04:16:43;;;;;;;12.13;8.00;;;;;;;22.87;52.04;95363.59;5085993;28;20299;-65
2021/06/28 04:19:10;;;;;;;11.30;7.77;;;;;;;22.86;52.27;95362.00;5081952;28;20574;-62
2021/06/28 04:21:36;;;;;;;11.67;7.73;;;;;;;22.94;51.99;95363.88;5084017;28;20204;-64
2021/06/28 04:24:05;;;;;;;14.90;8.27;;;;;;;22.62;52.92;95356.47;5088349;28;20565;-66
2021/06/28 04:26:32;;;;;;;13.13;7.17;;;;;;;22.55;53.81;95356.19;5087783;28;20214;-65
2021/06/28 04:28:59;;;;;;;12.40;7.23;;;;;;;22.15;54.44;95373.50;5082456;28;20191;-66
2021/06/28 04:31:27;;;;;;;14.77;7.57;;;;;;;22.53;53.87;95363.69;5087515;28;20324;-64
2021/06/28 04:33:55;;;;;;;14.63;7.43;;;;;;;22.62;53.33;95374.38;5084959;28;20283;-64
2021/06/28 04:36:23;;;;;;;16.73;8.60;;;;;;;22.66;53.04;95368.06;5082317;28;20561;-65
2021/06/28 04:38:50;;;;;;;22.77;8.47;;;;;;;22.70;53.45;95369.00;5087665;28;20191;-64
2021/06/28 04:41:17;;;;;;;15.97;8.03;;;;;;;22.82;53.03;95371.00;5079828;28;21001;-65
2021/06/28 04:43:44;;;;;;;14.83;9.53;;;;;;;22.96;52.51;95369.69;5079616;28;22095;-64
2021/06/28 04:46:11;;;;;;;24.03;17.70;;;;;;;23.18;52.52;95373.97;5076378;28;20271;-65
2021/06/28 04:48:38;;;;;;;13.73;9.80;;;;;;;23.27;51.91;95371.25;5077586;28;20227;-63
2021/06/28 04:51:05;;;;;;;17.23;9.87;;;;;;;23.20;52.49;95376.31;5082527;28;20207;-64
2021/06/28 04:53:32;;;;;;;16.93;8.47;;;;;;;23.30;51.80;95373.31;5088401;28;20585;-65
2021/06/28 04:55:59;;;;;;;86.07;74.30;;;;;;;23.36;51.90;95374.69;5083583;28;20195;-64
2021/06/28 04:58:26;;;;;;;44.53;37.17;;;;;;;23.34;51.43;95376.94;5075739;28;20200;-65
2021/06/28 05:00:53;;;;;;;23.83;18.47;;;;;;;23.49;51.58;95373.66;5086061;28;20191;-66
2021/06/28 05:03:20;;;;;;;17.13;9.30;;;;;;;23.39;51.89;95384.75;5080916;28;20198;-65
2021/06/28 05:05:47;;;;;;;17.87;11.20;;;;;;;22.93;53.01;95394.38;5085271;28;20215;-62
2021/06/28 05:08:14;;;;;;;22.70;13.43;;;;;;;23.31;51.71;95388.25;5083559;28;20249;-63
2021/06/28 05:10:41;;;;;;;20.87;12.00;;;;;;;23.42;50.54;95384.09;5084681;28;20683;-64
2021/06/28 05:13:09;;;;;;;18.27;10.37;;;;;;;23.49;50.05;95390.50;5086363;28;20567;-64
2021/06/28 05:15:36;;;;;;;12.87;9.40;;;;;;;23.47;50.67;95386.56;5081066;28;20211;-64
2021/06/28 05:18:04;;;;;;;14.63;9.27;;;;;;;23.33;51.26;95394.84;5080847;28;20191;-64
2021/06/28 05:20:31;;;;;;;16.07;9.73;;;;;;;23.51;51.09;95384.81;5084674;28;20583;-63
2021/06/28 05:22:57;;;;;;;14.93;8.33;;;;;;;23.49;51.09;95379.00;5079909;28;20321;-63
2021/06/28 05:25:25;;;;;;;15.37;8.60;;;;;;;22.80;52.12;95386.56;5074996;28;20358;-65
2021/06/28 05:27:52;;;;;;;15.87;9.30;;;;;;;22.84;51.28;95390.97;5077827;28;20197;-65
2021/06/28 05:30:19;;;;;;;21.30;18.17;;;;;;;23.19;51.79;95396.94;5079873;28;20191;-67
2021/06/28 05:32:46;;;;;;;245.90;162.57;;;;;;;23.38;52.20;95397.34;5074278;28;20756;-64
2021/06/28 05:35:15;;;;;;;19.63;10.10;;;;;;;23.42;52.42;95400.13;5082856;28;20199;-67
2021/06/28 05:37:42;;;;;;;13.57;8.50;;;;;;;23.67;52.36;95396.50;5080131;28;20202;-68
2021/06/28 05:40:10;;;;;;;18.07;8.70;;;;;;;23.67;53.58;95396.50;5083502;28;20728;-68
2021/06/28 05:42:39;;;;;;;13.70;9.03;;;;;;;23.90;52.91;95403.13;5085810;28;20270;-68
2021/06/28 05:45:07;;;;;;;20.83;8.20;;;;;;;23.80;53.71;95411.53;5083114;28;20550;-68
2021/06/28 05:47:34;;;;;;;20.03;9.87;;;;;;;23.95;53.64;95408.28;5090365;28;20226;-65
2021/06/28 05:50:03;;;;;;;13.93;9.97;;;;;;;24.13;52.74;95404.38;5082951;28;20196;-64
2021/06/28 05:52:30;;;;;;;20.57;9.53;;;;;;;24.10;52.84;95405.06;5089829;28;20229;-66
2021/06/28 05:54:57;;;;;;;22.93;10.37;;;;;;;24.20;51.77;95410.00;5092411;28;20199;-68
2021/06/28 05:57:24;;;;;;;16.03;9.87;;;;;;;24.27;51.09;95410.25;5080491;28;20837;-65
2021/06/28 05:59:54;;;;;;;18.83;10.57;;;;;;;23.79;52.02;95412.66;5084619;28;20208;-64
2021/06/28 06:02:21;;;;;;;14.30;9.53;;;;;;;23.64;52.65;95418.56;5085745;28;20225;-67
2021/06/28 06:04:50;;;;;;;12.97;8.40;;;;;;;23.90;52.22;95411.94;5085687;28;20554;-69
2021/06/28 06:07:17;;;;;;;15.47;9.07;;;;;;;;;;5083707;28;20284;-67
2021/06/28 06:09:45;;;;;;;15.90;8.97;;;;;;;24.62;50.73;95411.47;5089047;28;20672;-65
2021/06/28 06:12:13;;;;;;;21.80;9.63;;;;;;;24.67;49.60;95424.66;5089734;28;20191;-67
2021/06/28 06:14:40;;;;;;;15.07;9.43;;;;;;;24.85;49.77;95417.28;5088912;28;20187;-67
2021/06/28 06:17:08;;;;;;;15.83;8.60;;;;;;;24.81;50.87;95419.84;5082897;28;20200;-64
2021/06/28 06:19:36;;;;;;;15.67;8.17;;;;;;;24.48;50.38;95416.34;5082353;28;20191;-64
2021/06/28 06:22:03;;;;;;;14.53;7.97;;;;;;;24.72;49.72;95421.81;5090072;28;20585;-68
2021/06/28 06:24:30;;;;;;;16.07;8.67;;;;;;;24.55;50.16;95421.97;5089335;28;20187;-67
2021/06/28 06:26:57;;;;;;;16.30;8.17;;;;;;;24.86;49.24;95422.28;5089530;28;20236;-65
2021/06/28 06:29:25;;;;;;;17.23;8.83;;;;;;;24.86;48.98;95416.94;5089386;28;20197;-67
2021/06/28 06:31:53;;;;;;;14.33;8.63;;;;;;;24.29;49.67;95407.25;5089511;28;20227;-64
2021/06/28 06:34:22;;;;;;;12.87;7.27;;;;;;;24.57;49.80;95419.72;5088887;28;20230;-69
2021/06/28 06:36:49;;;;;;;13.33;7.67;;;;;;;24.81;48.97;95414.47;5089289;28;20209;-66
2021/06/28 06:39:16;;;;;;;15.00;7.47;;;;;;;24.87;50.16;95410.44;5076176;28;20191;-64
2021/06/28 06:41:43;;;;;;;14.70;7.30;;;;;;;25.23;49.65;95422.34;5076240;28;20200;-67
2021/06/28 06:44:11;;;;;;;16.97;8.53;;;;;;;25.34;49.31;95416.19;5071190;28;20210;-68
2021/06/28 06:46:38;;;;;;;18.40;8.33;;;;;;;25.55;49.33;95424.94;5073705;28;20223;-66
2021/06/28 06:49:07;;;;;;;11.53;8.40;;;;;;;25.74;48.45;95421.66;5076953;28;20217;-67
2021/06/28 06:51:34;;;;;;;10.73;7.57;;;;;;;26.03;47.72;95416.00;5083644;28;20196;-64
2021/06/28 06:54:01;;;;;;;13.87;7.60;;;;;;;25.76;48.61;95411.38;5089165;28;20203;-67
2021/06/28 06:56:28;;;;;;;19.43;7.70;;;;;;;25.56;46.27;95412.28;5093356;28;20199;-68
2021/06/28 06:58:55;;;;;;;11.77;7.57;;;;;;;25.50;46.11;95413.63;5092972;28;20210;-68
2021/06/28 07:01:22;;;;;;;13.20;7.73;;;;;;;25.76;47.75;95424.81;5093595;28;20281;-68
2021/06/28 07:03:49;;;;;;;11.83;7.57;;;;;;;26.01;46.07;95407.50;5093466;28;20198;-68
2021/06/28 07:06:16;;;;;;;14.40;8.20;;;;;;;25.83;47.73;95411.59;5092930;28;20211;-67
2021/06/28 07:08:43;;;;;;;15.20;7.33;;;;;;;26.04;47.56;95406.84;5082246;28;20203;-67
2021/06/28 07:11:12;;;;;;;13.20;7.77;;;;;;;26.28;46.77;95408.66;5087338;28;20602;-65
2021/06/28 07:13:42;;;;;;;14.77;8.00;;;;;;;26.37;46.94;95399.34;5083306;28;20203;-68
2021/06/28 07:16:10;;;;;;;12.27;7.87;;;;;;;26.10;45.93;95408.19;5092778;28;20191;-68
2021/06/28 07:18:37;;;;;;;10.47;7.37;;;;;;;26.25;44.56;95409.38;5084589;28;20198;-65
2021/06/28 07:21:07;;;;;;;9.50;5.97;;;;;;;26.22;44.10;95400.09;5092896;28;20616;-65
2021/06/28 07:23:34;;;;;;;12.47;6.20;;;;;;;26.52;42.80;95398.59;5093092;28;20586;-67
2021/06/28 07:26:03;;;;;;;9.83;6.43;;;;;;;26.70;42.27;95396.41;5092172;28;20187;-69
2021/06/28 07:28:31;;;;;;;6.83;5.90;;;;;;;26.58;41.17;95389.19;5092908;28;20195;-66
2021/06/28 07:31:00;;;;;;;9.37;6.23;;;;;;;26.45;41.72;95394.94;5092092;28;20783;-68
2021/06/28 07:33:28;;;;;;;9.67;6.57;;;;;;;26.75;41.09;95383.50;5092698;28;20329;-68
2021/06/28 07:35:58;;;;;;;11.90;5.70;;;;;;;26.97;41.44;95380.22;5092406;28;20195;-68
2021/06/28 07:38:26;;;;;;;9.30;6.03;;;;;;;27.12;41.57;95377.84;5077904;28;20623;-69
2021/06/28 07:40:53;;;;;;;6.30;5.70;;;;;;;27.09;41.40;95381.25;5092446;28;20271;-64
2021/06/28 07:43:20;;;;;;;9.10;5.80;;;;;;;27.24;42.36;95383.16;5080581;28;20286;-67
2021/06/28 07:45:50;;;;;;;9.97;6.83;;;;;;;27.49;42.56;95384.53;5090990;28;20187;-67
2021/06/28 07:48:17;;;;;;;16.87;6.53;;;;;;;27.57;41.75;95378.19;5093352;28;20246;-66
2021/06/28 07:50:44;;;;;;;8.90;6.10;;;;;;;27.74;41.13;95391.25;5074696;28;20195;-67
2021/06/28 07:53:11;;;;;;;11.03;6.77;;;;;;;27.39;40.49;95385.84;5072659;28;20223;-66
2021/06/28 07:55:39;;;;;;;15.80;7.33;;;;;;;27.07;40.79;95392.38;5084311;28;20200;-66
2021/06/28 07:58:06;;;;;;;12.87;7.00;;;;;;;27.41;40.15;95382.84;5084281;28;20691;-65
2021/06/28 08:00:33;;;;;;;15.60;7.17;;;;;;;27.60;40.19;95396.31;5071547;28;20200;-68
2021/06/28 08:03:02;;;;;;;13.10;7.90;;;;;;;27.34;40.41;95393.41;5079285;28;20210;-69
2021/06/28 08:05:29;;;;;;;19.57;8.47;;;;;;;27.57;40.71;95388.97;5079104;28;20206;-66
2021/06/28 08:07:56;;;;;;;10.10;6.93;;;;;;;27.57;39.60;95391.66;5086577;28;20220;-66
2021/06/28 08:10:23;;;;;;;9.97;6.50;;;;;;;27.49;38.46;95396.09;5083059;28;20206;-66
2021/06/28 08:12:51;;;;;;;11.90;6.13;;;;;;;27.37;38.15;95392.72;5093142;28;20211;-64
2021/06/28 08:15:19;;;;;;;10.87;6.00;;;;;;;27.63;39.54;95387.53;5092516;28;20226;-67
2021/06/28 08:17:51;;;;;;;15.63;7.13;;;;;;;27.84;39.71;95385.31;5076521;28;20210;-67
2021/06/28 08:20:20;;;;;;;13.17;5.87;;;;;;;28.10;39.37;95393.59;5086082;28;20225;-69
2021/06/28 08:22:48;;;;;;;11.23;6.10;;;;;;;28.19;39.30;95391.47;5092231;28;20190;-68
2021/06/28 08:25:16;;;;;;;10.50;5.70;;;;;;;28.36;39.43;95392.94;5092714;28;20209;-67
2021/06/28 08:27:44;;;;;;;10.30;6.07;;;;;;;28.17;39.11;95393.75;5092599;28;20207;-66
2021/06/28 08:30:12;;;;;;;13.03;5.90;;;;;;;28.27;37.63;95395.06;5092099;28;20230;-65
2021/06/28 08:32:39;;;;;;;9.07;6.10;;;;;;;28.32;38.71;95392.88;5091201;28;20231;-66
2021/06/28 08:35:07;;;;;;;8.10;5.50;;;;;;;28.54;38.39;95397.56;5091609;28;20648;-66
2021/06/28 08:37:34;;;;;;;8.43;5.50;;;;;;;28.61;37.48;95392.31;5091561;28;20595;-64
2021/06/28 08:40:01;;;;;;;6.17;4.27;;;;;;;28.77;35.15;95387.63;5078277;28;20227;-68
2021/06/28 08:42:28;;;;;;;6.77;4.33;;;;;;;28.90;33.48;95390.91;5071031;28;20700;-67
2021/06/28 08:44:56;;;;;;;5.53;4.57;;;;;;;28.87;34.15;95391.63;5082623;28;20276;-67
2021/06/28 08:47:23;;;;;;;10.37;4.43;;;;;;;28.48;34.90;95390.91;5087648;28;20222;-69
2021/06/28 08:49:50;;;;;;;6.97;4.80;;;;;;;28.67;35.61;95390.09;5081320;28;20191;-65
2021/06/28 08:52:20;;;;;;;9.40;4.70;;;;;;;28.89;34.31;95387.44;5075113;28;20508;-65
2021/06/28 08:54:47;;;;;;;10.70;4.83;;;;;;;29.22;36.03;95377.97;5070337;28;20680;-68
2021/06/28 08:57:14;;;;;;;9.50;5.90;;;;;;;29.34;35.19;95375.09;5070775;28;20239;-66
2021/06/28 08:59:41;;;;;;;6.80;4.80;;;;;;;29.45;33.94;95376.78;5070662;28;20231;-68
2021/06/28 09:02:09;;;;;;;8.57;4.70;;;;;;;29.41;34.72;95386.00;5071472;28;20195;-66
2021/06/28 09:04:36;;;;;;;11.90;5.40;;;;;;;29.52;34.73;95381.53;5075957;28;20586;-69
2021/06/28 09:07:21;;;;;;;10.47;4.90;;;;;;;29.33;34.02;95382.41;5078341;28;20703;-67
2021/06/28 09:09:48;;;;;;;10.07;5.70;;;;;;;28.75;34.12;95364.81;5077356;28;20191;-66
2021/06/28 09:12:16;;;;;;;8.83;4.90;;;;;;;29.31;33.76;95381.19;5091241;28;20198;-68
2021/06/28 09:14:46;;;;;;;9.67;5.07;;;;;;;29.58;33.84;95374.69;5075726;28;20192;-68
2021/06/28 09:17:34;;;;;;;8.33;4.60;;;;;;;29.57;33.15;95378.50;5090921;28;20194;-66
2021/06/28 09:20:14;;;;;;;6.57;3.47;;;;;;;29.72;31.06;95383.00;5082822;28;20207;-67
2021/06/28 09:22:42;;;;;;;7.47;3.63;;;;;;;29.76;30.43;95375.72;5076350;28;20191;-65
2021/06/28 09:25:29;;;;;;;5.33;3.53;;;;;;;29.85;29.29;95378.94;5090628;28;20191;-66
2021/06/28 09:27:56;;;;;;;5.20;3.33;;;;;;;29.89;29.71;95379.75;5090721;28;20211;-65
2021/06/28 09:30:24;;;;;;;6.13;3.87;;;;;;;29.97;28.91;95370.59;5090155;28;20191;-64
2021/06/28 09:32:54;;;;;;;5.93;3.37;;;;;;;30.14;28.98;95374.66;5090327;28;20286;-65
2021/06/28 09:35:35;;;;;;;4.87;3.57;;;;;;;29.90;30.10;95381.31;5090154;28;20221;-68
2021/06/28 09:38:04;;;;;;;6.80;3.40;;;;;;;30.19;30.78;95379.75;5077261;28;20586;-68
2021/06/28 09:40:31;;;;;;;6.93;3.80;;;;;;;30.35;30.22;95366.81;5087825;28;20234;-66
2021/06/28 09:42:59;;;;;;;5.50;3.30;;;;;;;30.32;29.28;95378.38;5089127;28;20207;-68
2021/06/28 09:45:28;;;;;;;7.37;3.80;;;;;;;30.39;30.75;95370.34;5089796;28;20581;-65
2021/06/28 09:47:55;;;;;;;6.97;3.67;;;;;;;30.56;29.28;95375.97;5081520;28;20247;-70
2021/06/28 09:50:24;;;;;;;6.57;3.10;;;;;;;30.52;29.49;95375.16;5069687;28;20199;-67
2021/06/28 09:52:55;;;;;;;8.10;3.30;;;;;;;30.60;29.01;95376.75;5069900;28;20218;-66
2021/06/28 09:55:22;;;;;;;5.80;3.30;;;;;;;30.66;28.72;95375.28;5083284;28;20199;-67
2021/06/28 09:58:22;;;;;;;6.17;3.20;;;;;;;30.32;26.85;95368.34;5090275;28;20195;-68
2021/06/28 10:00:51;;;;;;;4.57;2.87;;;;;;;29.67;27.73;95372.50;5075649;28;20207;-64
2021/06/28 10:03:46;;;;;;;7.50;3.20;;;;;;;30.28;27.59;95380.25;5080964;28;20203;-66
2021/06/28 10:06:25;;;;;;;6.67;2.97;;;;;;;30.24;26.13;95382.13;5083268;28;20188;-68
2021/06/28 10:09:14;;;;;;;4.90;2.50;;;;;;;30.01;25.49;95393.03;5069448;28;20220;-68
2021/06/28 10:11:45;;;;;;;5.30;2.60;;;;;;;30.43;27.38;95382.78;5077873;28;20270;-67
2021/06/28 10:14:11;;;;;;;2.50;2.20;;;;;;;30.64;26.52;95383.00;5089400;28;20565;-68
2021/06/28 10:16:40;;;;;;;4.23;2.50;;;;;;;30.50;26.40;95373.94;5089788;28;20629;-64
2021/06/28 10:19:09;;;;;;;3.83;2.40;;;;;;;30.92;26.95;95373.63;5089458;28;20203;-64
2021/06/28 10:21:37;;;;;;;8.23;3.00;;;;;;;31.13;27.39;95371.13;5089273;28;20287;-69
2021/06/28 10:24:06;;;;;;;4.17;2.70;;;;;;;31.50;27.33;95369.88;5089074;28;20577;-68
2021/06/28 10:26:33;;;;;;;5.07;2.43;;;;;;;31.60;26.23;95355.63;5089870;28;20217;-65
2021/06/28 10:29:00;;;;;;;4.57;2.77;;;;;;;31.47;26.42;95361.72;5089413;28;20223;-66
2021/06/28 10:31:27;;;;;;;3.70;2.40;;;;;;;31.79;27.30;95360.75;5089830;28;20765;-67
2021/06/28 10:33:58;;;;;;;5.70;2.63;;;;;;;31.56;25.33;95357.53;5088677;28;20294;-69
2021/06/28 10:36:36;;;;;;;4.60;2.07;;;;;;;31.51;24.44;95357.13;5089859;28;20199;-66
2021/06/28 10:39:08;;;;;;;4.97;2.00;;;;;;;31.95;25.25;95352.38;5074908;28;20212;-65
2021/06/28 10:41:52;;;;;;;5.63;2.80;;;;;;;31.90;25.60;95350.00;5089798;28;20234;-66
2021/06/28 10:44:21;;;;;;;3.10;2.50;;;;;;;31.63;24.39;95349.44;5089243;28;20203;-68
2021/06/28 10:46:56;;;;;;;3.77;2.10;;;;;;;31.10;24.87;95342.06;5089618;28;20261;-65
2021/06/28 10:49:46;;;;;;;4.03;2.30;;;;;;;31.60;24.46;95347.50;5082631;28;20674;-67
2021/06/28 10:52:38;;;;;;;4.03;2.30;;;;;;;31.52;24.40;95339.69;5069246;28;20198;-64
2021/06/28 10:55:17;;;;;;;3.80;2.30;;;;;;;31.90;24.66;95336.44;5068737;28;20696;-66
2021/06/28 10:57:55;;;;;;;6.43;2.60;;;;;;;32.12;24.02;95329.97;5074306;28;20194;-69
2021/06/28 11:00:52;;;;;;;3.73;2.70;;;;;;;32.21;25.18;95333.09;5089265;28;20203;-67
2021/06/28 11:03:34;;;;;;;4.83;3.30;;;;;;;32.34;26.42;95325.38;5078589;28;20283;-68
2021/06/28 11:06:14;;;;;;;3.03;2.77;;;;;;;32.56;26.25;95327.78;5071218;28;20602;-69
2021/06/28 11:09:01;;;;;;;7.27;3.30;;;;;;;32.52;26.61;95327.00;5069153;28;20225;-66
2021/06/28 11:11:43;;;;;;;3.17;2.80;;;;;;;32.37;25.15;95319.97;5069825;28;20211;-68
2021/06/28 11:14:30;;;;;;;3.23;2.80;;;;;;;32.87;26.44;95314.63;5083055;28;20562;-70
2021/06/28 11:17:09;;;;;;;2.90;2.20;;;;;;;32.55;24.59;95312.69;5079482;28;20196;-66
2021/06/28 11:19:48;;;;;;;5.10;2.50;;;;;;;32.75;25.84;95318.53;5085910;28;20206;-71
2021/06/28 11:22:30;;;;;;;2.40;2.20;;;;;;;32.70;24.13;95305.34;5089506;28;20194;-67
2021/06/28 11:25:13;;;;;;;5.53;2.83;;;;;;;32.94;25.71;95306.53;5089147;28;20282;-67
2021/06/28 11:28:29;;;;;;;4.17;2.57;;;;;;;32.79;24.05;95303.03;5088665;28;20716;-67
2021/06/28 11:30:59;;;;;;;5.70;2.53;;;;;;;32.42;24.98;95300.66;5070291;28;20230;-68
2021/06/28 11:33:42;;;;;;;2.47;2.27;;;;;;;32.42;24.00;95294.44;5092978;28;20192;-66
2021/06/28 11:36:30;;;;;;;3.53;2.50;;;;;;;31.66;24.28;95299.16;5092325;28;20744;-68
2021/06/28 11:39:00;;;;;;;2.57;2.17;;;;;;;32.40;24.07;95294.78;5087861;28;20270;-69
2021/06/28 11:41:29;;;;;;;3.27;1.70;;;;;;;32.49;21.90;95283.59;5073130;28;20203;-68